Exeter, MO (65647)

4:03 AM CDT on October 24, 2014 (GMT -0500)
Farm Road 2100 | Change Station
CLOSE
Current Station
Personal Weather Station
Location: Wheaton, MO
Elevation: 1335 ft
Nearby Weather Stations
Active Advisory: Dense Fog Advisory

Elev 1335 ft 36.79 °N, 94.07 °W | Updated 2 seconds ago

Clear
Clear
45.3 °F
Feels Like 45 °F
N
0.0
Wind Variable Wind from SE
Gusts 0.0 mph

Today
High -- | Low -- °F
--% Chance of Precip.
Yesterday
High -- | Low -- °F
Precip. -- in
7:31 AM 6:27 PM
New Moon, 0% visible
Pressure 30.12 in
Visibility 7.0 miles
Clouds Clear
Windchill 45 °F
Dew Point 44 °F
Humidity 97%
Rainfall 0.00 in
Snow Depth Not available.
UV 0 out of 12
Pollen 1.90 out of 12
Air Quality Not available.
Flu Activity No Activity
METAR KHFJ 240855Z AUTO 19003KT 7SM CLR 10/10 A3012 RMK AO2

More Conditions Fewer Conditions

Pressure 30.12 in
Visibility 7.0 miles
Clouds Clear
Windchill 45 °F
Dew Point 44 °F
Humidity 97%
Rainfall 0.00 in
Snow Depth Not available.
UV 0 out of 12
Pollen 1.90 out of 12
Air Quality Not available.
Flu Activity No Activity
METAR KHFJ 240855Z AUTO 19003KT 7SM CLR 10/10 A3012 RMK AO2

More Conditions Fewer Conditions

10-Day Weather Forecast

Almanac

Astronomy

Oct. 24, 2014 Rise Set
Actual Time 7:31 AM CDT 6:27 PM CDT
Civil Twilight 7:05 AM CDT 6:54 PM CDT
Nautical Twilight 6:34 AM CDT 7:24 PM CDT
Astronomical Twilight 6:04 AM CDT 7:54 PM CDT
Moon 8:10 AM CDT 7:09 PM CDT
Length of Visible Light 11h 49m
Length of Day
10h 56m
Tomorrow will be 2m 8s shorter.
New Moon, 0% of the Moon is Illuminated
Today
New Moon
Oct 30
First Quarter
Nov 6
Full
Nov 14
Last Quarter
Nov 22
New

Today's Extremes

State Highs State Lows

Community

WunderPhotos

Upload Photos

1,764,513 photos uploaded!

WunderBlogs® & News

Nearby

Snow Depth

Station Depth Elevation
No new snow has been reported.

Earthquake Activity

City Distance Mag. Time & Date
No recent earthquake activity has been reported nearby.
Minimum magnitude displayed is 2.5.

Coastal Water Temperatures

Place Temperature
No Stations Reporting

Nearby Weather Stations